sensor_id;sensor_type;location;lat;lon;timestamp;pressure;altitude;pressure_sealevel;temperature;humidity
40285;BME280;25997;50.214;19.354;2023-05-07T00:01:04;97931.03;;;11.18;59.15
40285;BME280;25997;50.214;19.354;2023-05-07T00:04:07;97923.13;;;11.17;59.09
40285;BME280;25997;50.214;19.354;2023-05-07T00:07:11;97931.09;;;11.20;59.03
40285;BME280;25997;50.214;19.354;2023-05-07T00:10:14;97917.16;;;11.24;58.96
40285;BME280;25997;50.214;19.354;2023-05-07T00:13:16;97931.94;;;11.20;58.68
40285;BME280;25997;50.214;19.354;2023-05-07T00:16:18;97926.56;;;11.14;59.08
40285;BME280;25997;50.214;19.354;2023-05-07T00:19:21;97923.69;;;11.05;59.00
40285;BME280;25997;50.214;19.354;2023-05-07T00:22:25;97932.28;;;10.98;59.05
40285;BME280;25997;50.214;19.354;2023-05-07T00:25:27;97929.47;;;10.89;59.04
40285;BME280;25997;50.214;19.354;2023-05-07T00:28:29;97940.78;;;10.87;59.14
40285;BME280;25997;50.214;19.354;2023-05-07T00:31:32;97942.56;;;10.88;59.23
40285;BME280;25997;50.214;19.354;2023-05-07T00:34:34;97939.13;;;10.90;59.14
40285;BME280;25997;50.214;19.354;2023-05-07T00:37:38;97941.84;;;10.93;59.08
40285;BME280;25997;50.214;19.354;2023-05-07T00:40:41;97937.44;;;10.94;58.94
40285;BME280;25997;50.214;19.354;2023-05-07T00:43:44;97929.50;;;10.91;58.99
40285;BME280;25997;50.214;19.354;2023-05-07T00:46:46;97939.84;;;10.85;58.98
40285;BME280;25997;50.214;19.354;2023-05-07T00:49:51;97942.34;;;10.79;59.33
40285;BME280;25997;50.214;19.354;2023-05-07T00:52:55;97949.13;;;10.69;59.19
40285;BME280;25997;50.214;19.354;2023-05-07T00:55:58;97952.34;;;10.57;59.52
40285;BME280;25997;50.214;19.354;2023-05-07T00:59:02;97943.22;;;10.42;59.67
40285;BME280;25997;50.214;19.354;2023-05-07T01:02:04;97947.44;;;10.37;59.50
40285;BME280;25997;50.214;19.354;2023-05-07T01:05:09;97936.84;;;10.32;59.90
40285;BME280;25997;50.214;19.354;2023-05-07T01:08:15;97947.31;;;10.31;59.85
40285;BME280;25997;50.214;19.354;2023-05-07T01:11:17;97946.28;;;10.24;59.86
40285;BME280;25997;50.214;19.354;2023-05-07T01:14:21;97952.38;;;10.25;59.71
40285;BME280;25997;50.214;19.354;2023-05-07T01:17:24;97959.28;;;10.21;60.03
40285;BME280;25997;50.214;19.354;2023-05-07T01:20:27;97960.09;;;10.19;59.83
40285;BME280;25997;50.214;19.354;2023-05-07T01:23:33;97960.66;;;10.07;59.86
40285;BME280;25997;50.214;19.354;2023-05-07T01:26:38;97953.66;;;10.06;59.94
40285;BME280;25997;50.214;19.354;2023-05-07T01:29:41;97965.69;;;9.99;59.77
40285;BME280;25997;50.214;19.354;2023-05-07T01:32:47;97968.84;;;9.88;60.00
40285;BME280;25997;50.214;19.354;2023-05-07T01:35:53;97968.59;;;9.79;60.03
40285;BME280;25997;50.214;19.354;2023-05-07T01:38:58;97970.97;;;9.70;60.01
40285;BME280;25997;50.214;19.354;2023-05-07T01:42:01;97971.78;;;9.69;60.14
40285;BME280;25997;50.214;19.354;2023-05-07T01:45:05;97968.22;;;9.65;60.24
40285;BME280;25997;50.214;19.354;2023-05-07T01:48:10;97968.19;;;9.64;60.03
40285;BME280;25997;50.214;19.354;2023-05-07T01:51:13;97962.94;;;9.64;59.96
40285;BME280;25997;50.214;19.354;2023-05-07T01:54:17;97963.69;;;9.60;60.06
40285;BME280;25997;50.214;19.354;2023-05-07T01:57:20;97959.19;;;9.56;59.86
40285;BME280;25997;50.214;19.354;2023-05-07T02:00:23;97955.63;;;9.54;60.05
40285;BME280;25997;50.214;19.354;2023-05-07T02:03:26;97962.00;;;9.62;60.13
40285;BME280;25997;50.214;19.354;2023-05-07T02:06:38;97962.88;;;9.62;60.04
40285;BME280;25997;50.214;19.354;2023-05-07T02:09:44;97964.66;;;9.63;60.07
40285;BME280;25997;50.214;19.354;2023-05-07T02:12:47;97963.94;;;9.69;60.04
40285;BME280;25997;50.214;19.354;2023-05-07T02:15:49;97963.00;;;9.67;60.05
40285;BME280;25997;50.214;19.354;2023-05-07T02:18:53;97967.41;;;9.68;60.09
40285;BME280;25997;50.214;19.354;2023-05-07T02:21:56;97973.69;;;9.73;59.91
40285;BME280;25997;50.214;19.354;2023-05-07T02:25:00;97965.16;;;9.80;59.86
40285;BME280;25997;50.214;19.354;2023-05-07T02:28:02;97963.44;;;9.82;59.82
40285;BME280;25997;50.214;19.354;2023-05-07T02:31:14;97966.88;;;9.79;59.77
40285;BME280;25997;50.214;19.354;2023-05-07T02:34:17;97978.16;;;9.77;59.71
40285;BME280;25997;50.214;19.354;2023-05-07T02:37:19;97978.03;;;9.72;59.63
40285;BME280;25997;50.214;19.354;2023-05-07T02:40:24;97976.50;;;9.80;59.17
40285;BME280;25997;50.214;19.354;2023-05-07T02:43:26;97970.31;;;9.78;59.14
40285;BME280;25997;50.214;19.354;2023-05-07T02:46:29;97979.59;;;9.66;59.29
40285;BME280;25997;50.214;19.354;2023-05-07T02:49:36;97976.44;;;9.48;59.36
40285;BME280;25997;50.214;19.354;2023-05-07T02:52:41;97979.03;;;9.46;59.29
40285;BME280;25997;50.214;19.354;2023-05-07T02:55:45;97979.69;;;9.39;59.71
40285;BME280;25997;50.214;19.354;2023-05-07T02:58:48;97980.75;;;9.46;59.49
40285;BME280;25997;50.214;19.354;2023-05-07T03:01:52;97987.59;;;9.41;59.40
40285;BME280;25997;50.214;19.354;2023-05-07T03:04:55;97980.34;;;9.32;59.53
40285;BME280;25997;50.214;19.354;2023-05-07T03:07:58;97986.31;;;9.26;59.70
40285;BME280;25997;50.214;19.354;2023-05-07T03:11:01;97988.84;;;9.25;59.95
40285;BME280;25997;50.214;19.354;2023-05-07T03:14:04;97982.69;;;9.23;59.94
40285;BME280;25997;50.214;19.354;2023-05-07T03:17:07;97981.00;;;9.25;59.87
40285;BME280;25997;50.214;19.354;2023-05-07T03:20:10;97992.34;;;9.24;59.76
40285;BME280;25997;50.214;19.354;2023-05-07T03:23:15;97995.75;;;9.21;60.02
40285;BME280;25997;50.214;19.354;2023-05-07T03:26:19;97999.91;;;9.15;60.04
40285;BME280;25997;50.214;19.354;2023-05-07T03:29:21;97997.66;;;8.99;60.42
40285;BME280;25997;50.214;19.354;2023-05-07T03:32:24;98009.81;;;8.97;60.46
40285;BME280;25997;50.214;19.354;2023-05-07T03:35:26;98006.41;;;8.99;60.13
40285;BME280;25997;50.214;19.354;2023-05-07T03:38:29;98006.19;;;8.93;60.28
40285;BME280;25997;50.214;19.354;2023-05-07T03:41:34;98020.31;;;8.98;60.29
40285;BME280;25997;50.214;19.354;2023-05-07T03:44:36;98024.97;;;9.07;60.13
40285;BME280;25997;50.214;19.354;2023-05-07T03:47:39;98017.09;;;9.07;59.95
40285;BME280;25997;50.214;19.354;2023-05-07T03:50:44;98023.00;;;9.00;60.01
40285;BME280;25997;50.214;19.354;2023-05-07T03:53:47;98023.72;;;8.96;59.91
40285;BME280;25997;50.214;19.354;2023-05-07T03:56:51;98024.25;;;8.86;60.11
40285;BME280;25997;50.214;19.354;2023-05-07T03:59:53;98034.56;;;8.81;60.11
40285;BME280;25997;50.214;19.354;2023-05-07T04:02:56;98031.19;;;8.84;60.20
40285;BME280;25997;50.214;19.354;2023-05-07T04:06:01;98036.16;;;8.76;59.97
40285;BME280;25997;50.214;19.354;2023-05-07T04:09:06;98035.22;;;8.74;60.30
40285;BME280;25997;50.214;19.354;2023-05-07T04:12:11;98037.69;;;8.70;60.36
40285;BME280;25997;50.214;19.354;2023-05-07T04:15:14;98045.69;;;8.74;60.10
40285;BME280;25997;50.214;19.354;2023-05-07T04:18:16;98051.69;;;8.72;60.21
40285;BME280;25997;50.214;19.354;2023-05-07T04:21:20;98049.09;;;8.72;60.07
40285;BME280;25997;50.214;19.354;2023-05-07T04:24:25;98055.09;;;8.69;60.22
40285;BME280;25997;50.214;19.354;2023-05-07T04:27:29;98053.56;;;8.76;60.07
40285;BME280;25997;50.214;19.354;2023-05-07T04:30:31;98070.88;;;8.71;60.05
40285;BME280;25997;50.214;19.354;2023-05-07T04:33:34;98066.31;;;8.65;60.09
40285;BME280;25997;50.214;19.354;2023-05-07T04:36:38;98066.75;;;8.52;60.07
40285;BME280;25997;50.214;19.354;2023-05-07T04:39:45;98079.00;;;8.53;60.29
40285;BME280;25997;50.214;19.354;2023-05-07T04:42:50;98077.22;;;8.52;60.28
40285;BME280;25997;50.214;19.354;2023-05-07T04:45:53;98084.94;;;8.49;60.36
40285;BME280;25997;50.214;19.354;2023-05-07T04:48:59;98087.31;;;8.41;60.38
40285;BME280;25997;50.214;19.354;2023-05-07T04:52:01;98082.72;;;8.36;60.48
40285;BME280;25997;50.214;19.354;2023-05-07T04:55:05;98090.75;;;8.40;60.30
40285;BME280;25997;50.214;19.354;2023-05-07T04:58:13;98093.44;;;8.42;59.98
40285;BME280;25997;50.214;19.354;2023-05-07T05:01:18;98097.97;;;8.47;59.97
40285;BME280;25997;50.214;19.354;2023-05-07T05:04:20;98107.72;;;8.51;59.95
40285;BME280;25997;50.214;19.354;2023-05-07T05:07:24;98103.78;;;8.39;60.11
40285;BME280;25997;50.214;19.354;2023-05-07T05:10:27;98106.84;;;8.27;60.10
40285;BME280;25997;50.214;19.354;2023-05-07T05:13:32;98120.31;;;8.38;59.95
40285;BME280;25997;50.214;19.354;2023-05-07T05:16:38;98117.84;;;8.42;60.16
40285;BME280;25997;50.214;19.354;2023-05-07T05:19:41;98122.22;;;8.42;59.66
40285;BME280;25997;50.214;19.354;2023-05-07T05:22:43;98129.16;;;8.41;59.87
40285;BME280;25997;50.214;19.354;2023-05-07T05:25:48;98131.00;;;8.44;59.89
40285;BME280;25997;50.214;19.354;2023-05-07T05:28:52;98130.72;;;8.36;59.82
40285;BME280;25997;50.214;19.354;2023-05-07T05:31:57;98140.56;;;8.43;59.83
40285;BME280;25997;50.214;19.354;2023-05-07T05:35:01;98139.72;;;8.44;59.61
40285;BME280;25997;50.214;19.354;2023-05-07T05:38:04;98142.09;;;8.37;59.93
40285;BME280;25997;50.214;19.354;2023-05-07T05:41:08;98148.31;;;8.40;59.83
40285;BME280;25997;50.214;19.354;2023-05-07T05:44:12;98154.44;;;8.41;59.64
40285;BME280;25997;50.214;19.354;2023-05-07T05:47:16;98152.94;;;8.47;59.62
40285;BME280;25997;50.214;19.354;2023-05-07T05:50:19;98157.88;;;8.40;59.54
40285;BME280;25997;50.214;19.354;2023-05-07T05:53:21;98163.56;;;8.28;59.75
40285;BME280;25997;50.214;19.354;2023-05-07T05:56:24;98166.06;;;8.25;59.77
40285;BME280;25997;50.214;19.354;2023-05-07T05:59:28;98163.28;;;8.21;59.52
40285;BME280;25997;50.214;19.354;2023-05-07T06:02:32;98166.66;;;8.18;59.77
40285;BME280;25997;50.214;19.354;2023-05-07T06:05:34;98169.84;;;8.10;59.91
40285;BME280;25997;50.214;19.354;2023-05-07T06:08:37;98171.97;;;8.20;59.75
40285;BME280;25997;50.214;19.354;2023-05-07T06:11:40;98168.47;;;8.19;59.61
40285;BME280;25997;50.214;19.354;2023-05-07T06:14:44;98177.81;;;8.13;59.52
40285;BME280;25997;50.214;19.354;2023-05-07T06:17:47;98180.28;;;8.10;59.50
40285;BME280;25997;50.214;19.354;2023-05-07T06:20:51;98183.94;;;8.13;59.70
40285;BME280;25997;50.214;19.354;2023-05-07T06:23:59;98180.66;;;8.19;59.25
40285;BME280;25997;50.214;19.354;2023-05-07T06:27:02;98189.94;;;8.11;59.36
40285;BME280;25997;50.214;19.354;2023-05-07T06:30:08;98181.41;;;8.16;59.12
40285;BME280;25997;50.214;19.354;2023-05-07T06:33:10;98192.06;;;8.21;59.04
40285;BME280;25997;50.214;19.354;2023-05-07T06:36:13;98199.50;;;8.34;58.89
40285;BME280;25997;50.214;19.354;2023-05-07T06:39:16;98199.59;;;8.35;58.72
40285;BME280;25997;50.214;19.354;2023-05-07T06:42:18;98204.94;;;8.16;58.94
40285;BME280;25997;50.214;19.354;2023-05-07T06:45:24;98201.34;;;8.13;58.98
40285;BME280;25997;50.214;19.354;2023-05-07T06:48:28;98212.03;;;7.97;58.65
40285;BME280;25997;50.214;19.354;2023-05-07T06:51:36;98208.25;;;7.89;59.29
40285;BME280;25997;50.214;19.354;2023-05-07T06:54:39;98210.78;;;7.87;59.26
40285;BME280;25997;50.214;19.354;2023-05-07T06:57:42;98209.84;;;7.85;59.34
40285;BME280;25997;50.214;19.354;2023-05-07T07:00:46;98212.41;;;7.83;59.00
40285;BME280;25997;50.214;19.354;2023-05-07T07:03:48;98219.28;;;7.81;59.06
40285;BME280;25997;50.214;19.354;2023-05-07T07:06:54;98213.34;;;7.86;59.07
40285;BME280;25997;50.214;19.354;2023-05-07T07:09:57;98221.50;;;7.93;58.90
40285;BME280;25997;50.214;19.354;2023-05-07T07:13:03;98226.91;;;7.98;58.86
40285;BME280;25997;50.214;19.354;2023-05-07T07:16:07;98229.66;;;8.02;58.70
40285;BME280;25997;50.214;19.354;2023-05-07T07:19:10;98231.78;;;8.11;58.43
40285;BME280;25997;50.214;19.354;2023-05-07T07:22:12;98226.66;;;8.14;58.25
40285;BME280;25997;50.214;19.354;2023-05-07T07:25:15;98233.78;;;8.18;58.21
40285;BME280;25997;50.214;19.354;2023-05-07T07:28:20;98234.06;;;8.25;57.90
40285;BME280;25997;50.214;19.354;2023-05-07T07:31:25;98245.38;;;8.24;57.88
40285;BME280;25997;50.214;19.354;2023-05-07T07:34:28;98248.06;;;8.26;57.88
40285;BME280;25997;50.214;19.354;2023-05-07T07:37:31;98257.78;;;8.30;58.03
40285;BME280;25997;50.214;19.354;2023-05-07T07:40:34;98249.31;;;8.35;58.03
40285;BME280;25997;50.214;19.354;2023-05-07T07:43:38;98260.59;;;8.34;57.75
40285;BME280;25997;50.214;19.354;2023-05-07T07:46:42;98253.56;;;8.33;57.56
40285;BME280;25997;50.214;19.354;2023-05-07T07:49:45;98261.84;;;8.44;57.49
40285;BME280;25997;50.214;19.354;2023-05-07T07:52:48;98269.13;;;8.52;57.63
40285;BME280;25997;50.214;19.354;2023-05-07T07:55:51;98270.06;;;8.54;57.02
40285;BME280;25997;50.214;19.354;2023-05-07T07:58:57;98271.25;;;8.63;57.22
40285;BME280;25997;50.214;19.354;2023-05-07T08:02:01;98272.69;;;8.54;56.82
40285;BME280;25997;50.214;19.354;2023-05-07T08:05:05;98273.47;;;8.52;56.98
40285;BME280;25997;50.214;19.354;2023-05-07T08:08:09;98278.56;;;8.49;56.78
40285;BME280;25997;50.214;19.354;2023-05-07T08:11:14;98283.59;;;8.43;56.96
40285;BME280;25997;50.214;19.354;2023-05-07T08:14:17;98276.09;;;8.52;56.94
40285;BME280;25997;50.214;19.354;2023-05-07T08:17:23;98280.88;;;8.64;56.82
40285;BME280;25997;50.214;19.354;2023-05-07T08:20:26;98285.91;;;8.81;56.92
40285;BME280;25997;50.214;19.354;2023-05-07T08:23:29;98282.41;;;8.81;56.57
40285;BME280;25997;50.214;19.354;2023-05-07T08:26:32;98286.56;;;8.76;56.36
40285;BME280;25997;50.214;19.354;2023-05-07T08:29:34;98278.66;;;8.74;56.73
40285;BME280;25997;50.214;19.354;2023-05-07T08:32:38;98291.63;;;8.71;56.45
40285;BME280;25997;50.214;19.354;2023-05-07T08:35:41;98297.16;;;8.79;56.32
40285;BME280;25997;50.214;19.354;2023-05-07T08:38:45;98300.28;;;8.91;56.46
40285;BME280;25997;50.214;19.354;2023-05-07T08:41:48;98305.78;;;8.98;56.38
40285;BME280;25997;50.214;19.354;2023-05-07T08:44:57;98311.09;;;9.00;56.00
40285;BME280;25997;50.214;19.354;2023-05-07T08:48:05;98319.47;;;8.91;55.78
40285;BME280;25997;50.214;19.354;2023-05-07T08:51:12;98321.03;;;8.86;56.01
40285;BME280;25997;50.214;19.354;2023-05-07T08:54:16;98321.56;;;8.78;56.03
40285;BME280;25997;50.214;19.354;2023-05-07T08:57:19;98327.03;;;8.84;55.88
40285;BME280;25997;50.214;19.354;2023-05-07T09:00:23;98330.63;;;8.87;56.04
40285;BME280;25997;50.214;19.354;2023-05-07T09:03:30;98334.50;;;8.95;55.58
40285;BME280;25997;50.214;19.354;2023-05-07T09:06:33;98332.81;;;8.75;55.81
40285;BME280;25997;50.214;19.354;2023-05-07T09:09:37;98340.22;;;8.87;56.07
40285;BME280;25997;50.214;19.354;2023-05-07T09:12:40;98346.28;;;9.08;55.99
40285;BME280;25997;50.214;19.354;2023-05-07T09:15:45;98349.13;;;9.14;55.34
40285;BME280;25997;50.214;19.354;2023-05-07T09:18:51;98352.53;;;9.11;55.13
40285;BME280;25997;50.214;19.354;2023-05-07T09:21:58;98353.94;;;9.02;54.75
40285;BME280;25997;50.214;19.354;2023-05-07T09:25:02;98347.25;;;8.88;55.63
40285;BME280;25997;50.214;19.354;2023-05-07T09:28:05;98355.84;;;8.84;55.50
40285;BME280;25997;50.214;19.354;2023-05-07T09:31:08;98364.31;;;8.78;55.74
40285;BME280;25997;50.214;19.354;2023-05-07T09:34:13;98362.84;;;8.63;55.64
40285;BME280;25997;50.214;19.354;2023-05-07T09:37:19;98374.28;;;8.65;55.77
40285;BME280;25997;50.214;19.354;2023-05-07T09:40:22;98364.69;;;8.65;55.77
40285;BME280;25997;50.214;19.354;2023-05-07T09:43:26;98362.50;;;8.53;55.63
40285;BME280;25997;50.214;19.354;2023-05-07T09:46:36;98372.38;;;8.61;55.99
40285;BME280;25997;50.214;19.354;2023-05-07T09:49:47;98366.53;;;8.68;56.04
40285;BME280;25997;50.214;19.354;2023-05-07T09:52:54;98380.00;;;8.77;55.79
40285;BME280;25997;50.214;19.354;2023-05-07T09:55:59;98382.47;;;8.74;55.53
40285;BME280;25997;50.214;19.354;2023-05-07T09:59:05;98374.88;;;8.80;55.61
40285;BME280;25997;50.214;19.354;2023-05-07T10:02:09;98377.25;;;8.96;55.65
40285;BME280;25997;50.214;19.354;2023-05-07T10:05:22;98383.41;;;9.20;55.72
40285;BME280;25997;50.214;19.354;2023-05-07T10:08:27;98389.38;;;9.40;55.02
40285;BME280;25997;50.214;19.354;2023-05-07T10:11:35;98399.88;;;9.40;54.73
40285;BME280;25997;50.214;19.354;2023-05-07T10:14:38;98396.06;;;9.32;54.55
40285;BME280;25997;50.214;19.354;2023-05-07T10:17:41;98399.47;;;9.29;54.44
40285;BME280;25997;50.214;19.354;2023-05-07T10:20:47;98405.09;;;9.16;54.35
40285;BME280;25997;50.214;19.354;2023-05-07T10:23:57;98405.84;;;9.13;53.93
40285;BME280;25997;50.214;19.354;2023-05-07T10:27:08;98416.16;;;8.87;54.98
40285;BME280;25997;50.214;19.354;2023-05-07T10:30:26;98410.81;;;8.84;54.62
40285;BME280;25997;50.214;19.354;2023-05-07T10:33:37;98412.22;;;8.76;55.11
40285;BME280;25997;50.214;19.354;2023-05-07T10:36:44;98421.88;;;8.77;55.07
40285;BME280;25997;50.214;19.354;2023-05-07T10:39:47;98433.75;;;8.89;54.97
40285;BME280;25997;50.214;19.354;2023-05-07T10:42:55;98431.75;;;8.84;54.93
40285;BME280;25997;50.214;19.354;2023-05-07T10:46:14;98426.63;;;8.87;54.72
40285;BME280;25997;50.214;19.354;2023-05-07T10:49:22;98432.22;;;8.74;55.10
40285;BME280;25997;50.214;19.354;2023-05-07T10:52:31;98427.75;;;8.71;54.86
40285;BME280;25997;50.214;19.354;2023-05-07T10:55:48;98432.81;;;8.67;55.31
40285;BME280;25997;50.214;19.354;2023-05-07T10:58:59;98432.66;;;8.84;55.24
40285;BME280;25997;50.214;19.354;2023-05-07T11:06:30;98437.59;;;8.77;54.83
40285;BME280;25997;50.214;19.354;2023-05-07T11:09:56;98437.59;;;8.77;54.71
40285;BME280;25997;50.214;19.354;2023-05-07T11:13:44;98432.34;;;8.77;54.95
40285;BME280;25997;50.214;19.354;2023-05-07T11:17:13;98433.75;;;8.89;54.96
40285;BME280;25997;50.214;19.354;2023-05-07T11:20:45;98435.41;;;9.09;54.83
40285;BME280;25997;50.214;19.354;2023-05-07T11:23:59;98435.94;;;9.01;54.88
40285;BME280;25997;50.214;19.354;2023-05-07T11:27:10;98445.78;;;9.06;54.78
40285;BME280;25997;50.214;19.354;2023-05-07T11:30:17;98449.56;;;9.14;54.52
40285;BME280;25997;50.214;19.354;2023-05-07T11:33:20;98454.69;;;9.11;54.31
40285;BME280;25997;50.214;19.354;2023-05-07T11:36:31;98449.88;;;9.22;54.25
40285;BME280;25997;50.214;19.354;2023-05-07T11:39:36;98455.88;;;9.19;54.42
40285;BME280;25997;50.214;19.354;2023-05-07T11:42:40;98454.13;;;9.20;54.22
40285;BME280;25997;50.214;19.354;2023-05-07T11:45:44;98462.47;;;9.32;54.19
40285;BME280;25997;50.214;19.354;2023-05-07T11:48:47;98471.88;;;9.27;54.03
40285;BME280;25997;50.214;19.354;2023-05-07T11:51:49;98470.03;;;9.24;54.04
40285;BME280;25997;50.214;19.354;2023-05-07T11:54:53;98470.72;;;9.19;53.83
40285;BME280;25997;50.214;19.354;2023-05-07T11:57:58;98467.13;;;9.39;54.18
40285;BME280;25997;50.214;19.354;2023-05-07T12:01:00;98465.06;;;9.54;53.61
40285;BME280;25997;50.214;19.354;2023-05-07T12:04:03;98465.91;;;9.77;53.45
40285;BME280;25997;50.214;19.354;2023-05-07T12:07:10;98458.50;;;9.90;53.16
40285;BME280;25997;50.214;19.354;2023-05-07T12:10:13;98457.94;;;9.99;52.82
40285;BME280;25997;50.214;19.354;2023-05-07T12:13:17;98466.38;;;9.90;52.91
40285;BME280;25997;50.214;19.354;2023-05-07T12:16:20;98465.78;;;9.74;52.78
40285;BME280;25997;50.214;19.354;2023-05-07T12:19:23;98468.06;;;9.65;52.78
40285;BME280;25997;50.214;19.354;2023-05-07T12:22:26;98473.59;;;9.72;53.08
40285;BME280;25997;50.214;19.354;2023-05-07T12:25:30;98473.88;;;9.80;52.77
40285;BME280;25997;50.214;19.354;2023-05-07T12:28:38;98476.69;;;9.62;52.40
40285;BME280;25997;50.214;19.354;2023-05-07T12:31:41;98484.03;;;9.25;53.03
40285;BME280;25997;50.214;19.354;2023-05-07T12:34:44;98490.34;;;9.30;53.04
40285;BME280;25997;50.214;19.354;2023-05-07T12:37:54;98493.63;;;9.24;53.12
40285;BME280;25997;50.214;19.354;2023-05-07T12:40:57;98496.41;;;9.29;53.21
40285;BME280;25997;50.214;19.354;2023-05-07T12:44:04;98488.13;;;9.41;52.92
40285;BME280;25997;50.214;19.354;2023-05-07T12:47:06;98489.81;;;9.62;52.53
40285;BME280;25997;50.214;19.354;2023-05-07T12:50:09;98492.28;;;9.81;52.50
40285;BME280;25997;50.214;19.354;2023-05-07T12:53:12;98492.59;;;9.67;52.21
40285;BME280;25997;50.214;19.354;2023-05-07T12:56:16;98495.34;;;9.70;52.22
40285;BME280;25997;50.214;19.354;2023-05-07T12:59:19;98499.81;;;9.49;51.87
40285;BME280;25997;50.214;19.354;2023-05-07T13:02:33;98502.09;;;9.40;52.40
40285;BME280;25997;50.214;19.354;2023-05-07T13:05:35;98500.94;;;9.55;52.84
40285;BME280;25997;50.214;19.354;2023-05-07T13:08:39;98505.06;;;9.72;52.40
40285;BME280;25997;50.214;19.354;2023-05-07T13:11:43;98511.38;;;9.77;52.34
40285;BME280;25997;50.214;19.354;2023-05-07T13:14:47;98509.41;;;9.72;52.00
40285;BME280;25997;50.214;19.354;2023-05-07T13:17:49;98513.56;;;9.67;52.14
40285;BME280;25997;50.214;19.354;2023-05-07T13:20:52;98502.91;;;9.62;52.18
40285;BME280;25997;50.214;19.354;2023-05-07T13:23:55;98502.59;;;9.53;52.08
40285;BME280;25997;50.214;19.354;2023-05-07T13:26:57;98504.72;;;9.63;51.96
40285;BME280;25997;50.214;19.354;2023-05-07T13:30:01;98510.00;;;9.65;51.64
40285;BME280;25997;50.214;19.354;2023-05-07T13:33:03;98514.81;;;9.53;51.27
40285;BME280;25997;50.214;19.354;2023-05-07T13:36:06;98516.19;;;9.21;51.71
40285;BME280;25997;50.214;19.354;2023-05-07T13:39:09;98511.50;;;9.12;52.01
40285;BME280;25997;50.214;19.354;2023-05-07T13:42:11;98525.00;;;9.01;52.06
40285;BME280;25997;50.214;19.354;2023-05-07T13:45:15;98516.94;;;8.76;52.46
40285;BME280;25997;50.214;19.354;2023-05-07T13:48:18;98522.84;;;8.70;52.59
40285;BME280;25997;50.214;19.354;2023-05-07T13:51:20;98517.84;;;8.76;52.73
40285;BME280;25997;50.214;19.354;2023-05-07T13:54:23;98523.59;;;8.68;53.18
40285;BME280;25997;50.214;19.354;2023-05-07T13:57:25;98520.56;;;8.78;53.14
40285;BME280;25997;50.214;19.354;2023-05-07T14:00:29;98522.97;;;8.94;52.64
40285;BME280;25997;50.214;19.354;2023-05-07T14:03:32;98519.72;;;8.99;52.55
40285;BME280;25997;50.214;19.354;2023-05-07T14:06:34;98515.44;;;9.01;52.04
40285;BME280;25997;50.214;19.354;2023-05-07T14:09:37;98517.22;;;8.82;52.41
40285;BME280;25997;50.214;19.354;2023-05-07T14:12:39;98525.84;;;8.79;52.46
40285;BME280;25997;50.214;19.354;2023-05-07T14:15:43;98529.78;;;8.70;52.62
40285;BME280;25997;50.214;19.354;2023-05-07T14:18:47;98531.06;;;8.58;53.08
40285;BME280;25997;50.214;19.354;2023-05-07T14:21:50;98536.75;;;8.69;53.05
40285;BME280;25997;50.214;19.354;2023-05-07T14:24:52;98541.84;;;8.87;52.82
40285;BME280;25997;50.214;19.354;2023-05-07T14:27:54;98536.53;;;9.26;52.80
40285;BME280;25997;50.214;19.354;2023-05-07T14:30:58;98545.59;;;9.58;52.07
40285;BME280;25997;50.214;19.354;2023-05-07T14:34:01;98544.03;;;9.63;51.44
40285;BME280;25997;50.214;19.354;2023-05-07T14:37:04;98548.00;;;9.52;50.99
40285;BME280;25997;50.214;19.354;2023-05-07T14:40:07;98552.34;;;9.29;51.06
40285;BME280;25997;50.214;19.354;2023-05-07T14:43:10;98553.88;;;9.02;51.53
40285;BME280;25997;50.214;19.354;2023-05-07T14:46:14;98553.59;;;8.76;51.77
40285;BME280;25997;50.214;19.354;2023-05-07T14:49:16;98558.00;;;8.56;52.06
40285;BME280;25997;50.214;19.354;2023-05-07T14:52:18;98561.19;;;8.49;52.51
40285;BME280;25997;50.214;19.354;2023-05-07T14:55:21;98562.19;;;8.51;52.49
40285;BME280;25997;50.214;19.354;2023-05-07T14:58:24;98564.41;;;8.42;52.80
40285;BME280;25997;50.214;19.354;2023-05-07T15:01:28;98569.19;;;8.52;52.70
40285;BME280;25997;50.214;19.354;2023-05-07T15:04:30;98568.28;;;8.51;52.65
40285;BME280;25997;50.214;19.354;2023-05-07T15:07:33;98577.81;;;8.49;52.77
40285;BME280;25997;50.214;19.354;2023-05-07T15:10:36;98578.00;;;8.14;53.32
40285;BME280;25997;50.214;19.354;2023-05-07T15:13:42;98571.69;;;7.90;54.19
40285;BME280;25997;50.214;19.354;2023-05-07T15:16:46;98574.59;;;7.77;54.65
40285;BME280;25997;50.214;19.354;2023-05-07T15:19:48;98583.78;;;7.51;55.16
40285;BME280;25997;50.214;19.354;2023-05-07T15:22:51;98581.31;;;7.54;54.91
40285;BME280;25997;50.214;19.354;2023-05-07T15:25:53;98590.13;;;7.56;55.18
40285;BME280;25997;50.214;19.354;2023-05-07T15:28:55;98587.72;;;7.78;54.72
40285;BME280;25997;50.214;19.354;2023-05-07T15:31:59;98603.00;;;7.89;54.48
40285;BME280;25997;50.214;19.354;2023-05-07T15:35:02;98592.31;;;8.03;54.35
40285;BME280;25997;50.214;19.354;2023-05-07T15:38:05;98590.28;;;8.15;54.13
40285;BME280;25997;50.214;19.354;2023-05-07T15:41:09;98583.91;;;8.29;54.46
40285;BME280;25997;50.214;19.354;2023-05-07T15:44:11;98589.78;;;8.44;53.90
40285;BME280;25997;50.214;19.354;2023-05-07T15:47:15;98600.25;;;8.44;53.63
40285;BME280;25997;50.214;19.354;2023-05-07T15:50:18;98585.44;;;8.45;53.41
40285;BME280;25997;50.214;19.354;2023-05-07T15:53:20;98585.50;;;8.26;53.47
40285;BME280;25997;50.214;19.354;2023-05-07T15:56:23;98590.91;;;7.91;53.96
40285;BME280;25997;50.214;19.354;2023-05-07T15:59:26;98590.75;;;7.88;54.16
40285;BME280;25997;50.214;19.354;2023-05-07T16:02:30;98600.50;;;7.92;54.17
40285;BME280;25997;50.214;19.354;2023-05-07T16:05:32;98600.72;;;7.77;54.09
40285;BME280;25997;50.214;19.354;2023-05-07T16:08:34;98595.75;;;7.83;54.05
40285;BME280;25997;50.214;19.354;2023-05-07T16:11:37;98604.44;;;7.64;54.21
40285;BME280;25997;50.214;19.354;2023-05-07T16:14:39;98600.66;;;7.58;54.48
40285;BME280;25997;50.214;19.354;2023-05-07T16:17:45;98609.47;;;7.60;54.18
40285;BME280;25997;50.214;19.354;2023-05-07T16:20:47;98609.84;;;7.50;54.13